createdAt,value
2018-03-18T00:00:52.269Z,23.20
2018-03-18T00:03:20.033Z,21.48
2018-03-18T00:05:47.875Z,22.27
2018-03-18T00:08:15.450Z,23.67
2018-03-18T00:10:42.996Z,24.10
2018-03-18T00:13:11.498Z,25.52
2018-03-18T00:15:39.118Z,20.65
2018-03-18T00:18:06.801Z,22.85
2018-03-18T00:20:34.364Z,20.62
2018-03-18T00:23:01.899Z,24.05
2018-03-18T00:25:29.506Z,25.60
2018-03-18T00:27:57.031Z,20.67
2018-03-18T00:30:24.581Z,23.45
2018-03-18T00:32:52.144Z,22.55
2018-03-18T00:35:19.675Z,21.23
2018-03-18T00:37:47.468Z,22.00
2018-03-18T00:40:15.048Z,21.27
2018-03-18T00:42:42.909Z,21.60
2018-03-18T00:45:10.429Z,22.80
2018-03-18T00:47:37.964Z,24.50
2018-03-18T00:50:05.509Z,20.50
2018-03-18T00:52:33.027Z,22.65
2018-03-18T00:55:00.914Z,22.67
2018-03-18T00:57:28.432Z,21.23
2018-03-18T00:59:55.956Z,19.85
2018-03-18T01:02:23.506Z,22.73
2018-03-18T01:04:51.201Z,22.05
2018-03-18T01:07:18.759Z,22.45
2018-03-18T01:09:46.279Z,23.38
2018-03-18T01:12:13.794Z,22.55
2018-03-18T01:14:41.341Z,22.62
2018-03-18T01:17:09.782Z,24.42
2018-03-18T01:19:38.055Z,22.58
2018-03-18T01:22:05.572Z,15.10
2018-03-18T01:24:33.100Z,27.33
2018-03-18T01:27:00.656Z,22.40
2018-03-18T01:29:28.178Z,19.27
2018-03-18T01:31:56.133Z,23.35
2018-03-18T01:34:23.641Z,16.65
2018-03-18T01:36:51.166Z,23.25
2018-03-18T01:39:18.732Z,21.95
2018-03-18T01:41:46.253Z,22.35
2018-03-18T01:44:13.823Z,23.87
2018-03-18T01:46:41.342Z,22.50
2018-03-18T01:49:08.876Z,21.90
2018-03-18T01:51:36.420Z,24.12
2018-03-18T01:54:03.934Z,23.45
2018-03-18T01:56:31.489Z,24.42
2018-03-18T01:58:59.010Z,23.05
2018-03-18T02:01:26.530Z,20.10
2018-03-18T02:03:54.073Z,22.52
2018-03-18T02:06:21.590Z,22.33
2018-03-18T02:08:49.139Z,22.87
2018-03-18T02:11:16.653Z,20.52
2018-03-18T02:13:44.169Z,19.85
2018-03-18T02:16:11.706Z,21.70
2018-03-18T02:18:39.218Z,20.85
2018-03-18T02:21:06.914Z,24.23
2018-03-18T02:23:34.430Z,22.23
2018-03-18T02:26:01.941Z,21.52
2018-03-18T02:28:29.477Z,21.27
2018-03-18T02:30:57.002Z,22.40
2018-03-18T02:33:24.723Z,19.52
2018-03-18T02:35:52.495Z,20.58
2018-03-18T02:38:20.009Z,19.75
2018-03-18T02:40:47.567Z,22.25
2018-03-18T02:43:15.086Z,19.27
2018-03-18T02:45:42.717Z,21.67
2018-03-18T02:48:10.231Z,18.83
2018-03-18T02:50:37.742Z,20.67
2018-03-18T02:53:05.292Z,22.17
2018-03-18T02:55:32.809Z,23.02
2018-03-18T02:58:01.421Z,22.17
2018-03-18T03:00:28.933Z,22.90
2018-03-18T03:02:56.449Z,22.02
2018-03-18T03:05:23.990Z,20.02
2018-03-18T03:07:51.515Z,20.10
2018-03-18T03:10:19.324Z,23.17
2018-03-18T03:12:46.832Z,22.00
2018-03-18T03:15:14.429Z,21.48
2018-03-18T03:17:41.968Z,25.02
2018-03-18T03:20:09.481Z,22.23
2018-03-18T03:22:37.421Z,21.20
2018-03-18T03:25:04.934Z,20.92
2018-03-18T03:27:32.456Z,20.60
2018-03-18T03:29:59.997Z,22.75
2018-03-18T03:32:27.509Z,21.08
2018-03-18T03:34:55.057Z,22.27
2018-03-18T03:37:22.578Z,24.27
2018-03-18T03:39:50.093Z,21.80
2018-03-18T03:42:17.630Z,21.60
2018-03-18T03:44:45.141Z,20.90
2018-03-18T03:47:12.813Z,19.50
2018-03-18T03:49:40.322Z,22.20
2018-03-18T03:52:07.851Z,24.33
2018-03-18T03:54:35.395Z,18.27
2018-03-18T03:57:02.912Z,16.67
2018-03-18T03:59:30.471Z,20.35
2018-03-18T04:01:57.981Z,14.65
2018-03-18T04:04:25.543Z,17.12
2018-03-18T04:06:53.068Z,19.83
2018-03-18T04:09:20.590Z,18.85
2018-03-18T04:11:48.141Z,18.98
2018-03-18T04:14:15.662Z,17.80
2018-03-18T04:16:43.178Z,20.30
2018-03-18T04:19:11.627Z,21.00
2018-03-18T04:21:39.142Z,15.30
2018-03-18T04:24:06.836Z,21.55
2018-03-18T04:26:34.366Z,16.50
2018-03-18T04:29:01.887Z,18.17
2018-03-18T04:31:29.433Z,14.93
2018-03-18T04:33:56.990Z,18.08
2018-03-18T04:36:24.530Z,20.70
2018-03-18T04:38:52.046Z,16.00
2018-03-18T04:41:19.580Z,17.58
2018-03-18T04:43:47.129Z,17.85
2018-03-18T04:46:14.649Z,14.25
2018-03-18T04:48:42.413Z,15.95
2018-03-18T04:51:09.937Z,17.40
2018-03-18T04:53:37.458Z,18.20
2018-03-18T04:56:04.998Z,16.30
2018-03-18T04:58:33.490Z,18.10
2018-03-18T05:01:01.534Z,16.27
2018-03-18T05:03:29.055Z,19.35
2018-03-18T05:05:56.578Z,17.92
2018-03-18T05:08:24.647Z,12.50
2018-03-18T05:10:52.171Z,21.08
2018-03-18T05:13:19.942Z,18.15
2018-03-18T05:15:47.474Z,17.55
2018-03-18T05:18:14.986Z,19.70
2018-03-18T05:20:42.529Z,14.45
2018-03-18T05:23:10.054Z,15.55
2018-03-18T05:25:37.619Z,16.60
2018-03-18T05:28:05.139Z,17.98
2018-03-18T05:30:32.653Z,19.45
2018-03-18T05:33:00.215Z,18.20
2018-03-18T05:35:27.729Z,7.50
2018-03-18T05:37:55.387Z,17.12
2018-03-18T05:40:22.910Z,18.80
2018-03-18T05:42:50.450Z,17.77
2018-03-18T05:45:17.986Z,15.88
2018-03-18T05:47:45.505Z,17.27
2018-03-18T05:50:13.053Z,18.40
2018-03-18T05:52:40.569Z,17.62
2018-03-18T05:55:08.085Z,17.25
2018-03-18T05:57:35.631Z,17.00
2018-03-18T06:00:03.142Z,14.98
2018-03-18T06:02:30.689Z,13.05
2018-03-18T06:04:58.200Z,15.80
2018-03-18T06:07:25.715Z,11.57
2018-03-18T06:09:53.259Z,14.77
2018-03-18T06:12:20.778Z,11.35
2018-03-18T06:14:48.514Z,14.82
2018-03-18T06:17:16.026Z,11.10
2018-03-18T06:19:43.540Z,15.98
2018-03-18T06:22:11.081Z,16.45
2018-03-18T06:24:38.629Z,15.57
2018-03-18T06:27:06.181Z,14.18
2018-03-18T06:29:33.716Z,14.87
2018-03-18T06:32:01.230Z,15.10
2018-03-18T06:34:28.773Z,15.40
2018-03-18T06:36:56.286Z,14.07
2018-03-18T06:39:24.012Z,9.38
2018-03-18T06:41:51.527Z,16.00
2018-03-18T06:44:19.059Z,16.30
2018-03-18T06:46:46.606Z,15.20
2018-03-18T06:49:14.121Z,13.95
2018-03-18T06:51:42.112Z,14.30
2018-03-18T06:54:09.741Z,13.23
2018-03-18T06:56:37.268Z,13.85
2018-03-18T06:59:04.813Z,13.95
2018-03-18T07:01:32.798Z,11.32
2018-03-18T07:04:00.556Z,11.27
2018-03-18T07:06:28.078Z,14.45
2018-03-18T07:08:55.662Z,13.65
2018-03-18T07:11:23.222Z,13.48
2018-03-18T07:13:50.750Z,11.70
2018-03-18T07:16:18.415Z,9.27
2018-03-18T07:18:45.929Z,14.50
2018-03-18T07:21:13.445Z,14.45
2018-03-18T07:23:41.006Z,13.60
2018-03-18T07:26:08.672Z,13.82
2018-03-18T07:28:36.544Z,14.65
2018-03-18T07:31:04.074Z,15.35
2018-03-18T07:33:31.762Z,15.07
2018-03-18T07:35:59.312Z,15.40
2018-03-18T07:38:26.838Z,14.43
2018-03-18T07:40:54.626Z,11.57
2018-03-18T07:43:22.171Z,15.35
2018-03-18T07:45:49.699Z,17.05
2018-03-18T07:48:17.307Z,13.98
2018-03-18T07:50:44.951Z,16.05
2018-03-18T07:53:12.591Z,16.67
2018-03-18T07:55:40.102Z,14.77
2018-03-18T07:58:07.621Z,15.77
2018-03-18T08:00:35.166Z,13.57
2018-03-18T08:03:02.716Z,13.40
2018-03-18T08:05:30.646Z,14.55
2018-03-18T08:07:58.185Z,13.18
2018-03-18T08:10:25.765Z,14.20
2018-03-18T08:12:53.427Z,15.48
2018-03-18T08:15:20.964Z,11.98
2018-03-18T08:17:48.519Z,14.18
2018-03-18T08:20:16.108Z,16.00
2018-03-18T08:22:43.662Z,13.57
2018-03-18T08:25:11.533Z,14.43
2018-03-18T08:27:39.087Z,14.02
2018-03-18T08:30:06.915Z,14.52
2018-03-18T08:32:34.620Z,14.40
2018-03-18T08:35:02.285Z,15.10
2018-03-18T08:37:30.787Z,15.70
2018-03-18T08:39:58.331Z,16.00
2018-03-18T08:42:29.116Z,12.77
2018-03-18T08:44:56.677Z,13.90
2018-03-18T08:47:24.483Z,16.37
2018-03-18T08:49:52.251Z,14.65
2018-03-18T08:52:19.863Z,16.80
2018-03-18T08:54:47.759Z,13.07
2018-03-18T08:57:15.280Z,13.95
2018-03-18T08:59:43.099Z,13.60
2018-03-18T09:02:10.928Z,13.23
2018-03-18T09:04:39.035Z,12.55
2018-03-18T09:07:06.913Z,14.65
2018-03-18T09:09:34.732Z,12.50
2018-03-18T09:12:02.533Z,14.77
2018-03-18T09:14:30.398Z,13.62
2018-03-18T09:16:58.572Z,13.80
2018-03-18T09:19:26.642Z,14.65
2018-03-18T09:21:54.919Z,14.02
2018-03-18T09:24:22.912Z,12.82
2018-03-18T09:26:50.960Z,14.00
2018-03-18T09:29:18.824Z,15.77
2018-03-18T09:31:47.716Z,13.80
2018-03-18T09:34:16.105Z,12.57
2018-03-18T09:36:44.574Z,12.93
2018-03-18T09:39:12.524Z,12.98
2018-03-18T09:41:41.292Z,13.52
2018-03-18T09:44:10.037Z,12.15
2018-03-18T09:46:37.848Z,14.20
2018-03-18T09:49:05.750Z,13.95
2018-03-18T09:51:33.720Z,13.27
2018-03-18T09:54:01.586Z,16.58
2018-03-18T09:56:29.704Z,15.20
2018-03-18T09:58:58.034Z,14.40
2018-03-18T10:01:26.107Z,12.40
2018-03-18T10:03:54.041Z,14.55
2018-03-18T10:06:21.910Z,11.68
2018-03-18T10:08:50.013Z,13.85
2018-03-18T10:11:17.982Z,12.98
2018-03-18T10:13:45.851Z,11.93
2018-03-18T10:16:13.772Z,12.45
2018-03-18T10:18:42.093Z,12.07
2018-03-18T10:21:11.235Z,14.77
2018-03-18T10:23:39.123Z,12.25
2018-03-18T10:26:07.536Z,12.93
2018-03-18T10:28:35.508Z,12.95
2018-03-18T10:31:03.478Z,13.60
2018-03-18T10:33:31.714Z,13.35
2018-03-18T10:35:59.616Z,13.50
2018-03-18T10:38:27.587Z,12.25
2018-03-18T10:40:55.657Z,13.55
2018-03-18T10:43:23.730Z,13.88
2018-03-18T10:45:52.003Z,12.52
2018-03-18T10:48:19.869Z,13.00
2018-03-18T10:50:47.805Z,13.60
2018-03-18T10:53:16.276Z,14.00
2018-03-18T10:55:44.189Z,12.90
2018-03-18T10:58:12.257Z,12.90
2018-03-18T11:00:45.081Z,13.30
2018-03-18T11:03:13.110Z,12.75
2018-03-18T11:05:41.181Z,14.07
2018-03-18T11:08:09.645Z,13.93
2018-03-18T11:10:37.713Z,13.60
2018-03-18T11:13:05.808Z,11.70
2018-03-18T11:15:33.746Z,11.90
2018-03-18T11:18:02.321Z,15.55
2018-03-18T11:20:30.329Z,11.43
2018-03-18T11:22:58.296Z,13.80
2018-03-18T11:25:26.564Z,12.20
2018-03-18T11:27:54.763Z,14.73
2018-03-18T11:30:22.546Z,14.43
2018-03-18T11:32:50.477Z,15.07
2018-03-18T11:35:18.446Z,12.85
2018-03-18T11:37:46.310Z,12.48
2018-03-18T11:40:14.690Z,14.63
2018-03-18T11:42:42.556Z,10.60
2018-03-18T11:45:10.424Z,13.77
2018-03-18T11:47:38.495Z,14.57
2018-03-18T11:50:06.362Z,13.38
2018-03-18T11:52:34.434Z,13.23
2018-03-18T11:55:02.299Z,16.17
2018-03-18T11:57:30.129Z,14.52
2018-03-18T11:59:58.032Z,12.85
2018-03-18T12:02:25.898Z,13.82
2018-03-18T12:04:54.028Z,13.10
2018-03-18T12:07:22.349Z,10.27
2018-03-18T12:09:50.213Z,14.38
2018-03-18T12:12:18.182Z,13.20
2018-03-18T12:14:46.049Z,13.85
2018-03-18T12:17:14.023Z,14.65
2018-03-18T12:19:41.883Z,13.20
2018-03-18T12:22:09.751Z,14.23
2018-03-18T12:24:37.620Z,15.05
2018-03-18T12:27:05.449Z,17.00
2018-03-18T12:29:33.658Z,15.02
2018-03-18T12:32:01.523Z,15.45
2018-03-18T12:34:29.391Z,15.45
2018-03-18T12:36:57.667Z,15.13
2018-03-18T12:39:26.410Z,13.57
2018-03-18T12:41:54.701Z,12.88
2018-03-18T12:44:23.211Z,11.07
2018-03-18T12:46:51.081Z,14.15
2018-03-18T12:49:19.354Z,16.05
2018-03-18T12:51:47.220Z,14.30
2018-03-18T12:54:15.108Z,14.15
2018-03-18T12:56:42.954Z,14.23
2018-03-18T12:59:10.820Z,13.62
2018-03-18T13:01:38.788Z,14.35
2018-03-18T13:04:06.551Z,14.32
2018-03-18T13:06:34.728Z,18.83
2018-03-18T13:09:02.559Z,15.80
2018-03-18T13:11:30.325Z,17.48
2018-03-18T13:13:58.222Z,13.50
2018-03-18T13:16:26.059Z,14.40
2018-03-18T13:18:54.277Z,15.52
2018-03-18T13:21:22.027Z,13.57
2018-03-18T13:23:49.791Z,15.00
2018-03-18T13:26:17.629Z,15.38
2018-03-18T13:28:45.527Z,14.30
2018-03-18T13:31:13.707Z,15.02
2018-03-18T13:33:41.667Z,15.93
2018-03-18T13:36:09.584Z,16.20
2018-03-18T13:38:37.517Z,15.20
2018-03-18T13:41:07.109Z,14.55
2018-03-18T13:43:35.077Z,22.50
2018-03-18T13:46:02.842Z,14.05
2018-03-18T13:48:30.674Z,11.12
2018-03-18T13:50:58.574Z,14.60
2018-03-18T13:53:26.440Z,13.98
2018-03-18T13:55:54.411Z,15.20
2018-03-18T13:58:22.240Z,9.57
2018-03-18T14:00:50.107Z,15.32
2018-03-18T14:03:17.974Z,13.75
2018-03-18T14:05:46.140Z,13.68
2018-03-18T14:08:14.006Z,14.73
2018-03-18T14:10:41.774Z,14.00
2018-03-18T14:13:09.681Z,15.50
2018-03-18T14:15:37.547Z,15.88
2018-03-18T14:18:05.517Z,14.27
2018-03-18T14:20:33.764Z,15.35
2018-03-18T14:23:01.631Z,16.58
2018-03-18T14:25:29.711Z,14.50
2018-03-18T14:27:57.799Z,17.10
2018-03-18T14:30:26.179Z,16.48
2018-03-18T14:32:55.070Z,15.07
2018-03-18T14:35:22.937Z,16.15
2018-03-18T14:37:51.320Z,15.68
2018-03-18T14:40:19.247Z,17.00
2018-03-18T14:42:47.112Z,12.52
2018-03-18T14:45:15.219Z,12.95
2018-03-18T14:47:43.087Z,14.65
2018-03-18T14:50:11.056Z,14.77
2018-03-18T14:52:39.024Z,13.70
2018-03-18T14:55:06.992Z,14.00
2018-03-18T14:57:35.107Z,14.43
2018-03-18T15:00:03.550Z,14.52
2018-03-18T15:02:32.436Z,14.68
2018-03-18T15:05:00.404Z,13.35
2018-03-18T15:07:28.271Z,14.60
2018-03-18T15:09:56.601Z,13.98
2018-03-18T15:12:24.621Z,14.80
2018-03-18T15:14:52.998Z,15.73
2018-03-18T15:17:21.445Z,15.77
2018-03-18T15:19:50.267Z,14.43
2018-03-18T15:22:18.644Z,13.45
2018-03-18T15:24:46.510Z,14.23
2018-03-18T15:27:15.194Z,10.40
2018-03-18T15:29:43.128Z,16.45
2018-03-18T15:32:11.133Z,15.10
2018-03-18T15:34:39.058Z,14.48
2018-03-18T15:37:06.969Z,11.27
2018-03-18T15:39:35.244Z,10.95
2018-03-18T15:42:03.213Z,13.20
2018-03-18T15:44:31.080Z,13.18
2018-03-18T15:46:59.355Z,14.45
2018-03-18T15:49:27.324Z,8.18
2018-03-18T15:51:55.703Z,14.87
2018-03-18T15:54:23.673Z,14.32
2018-03-18T15:56:51.540Z,14.45
2018-03-18T15:59:19.815Z,13.93
2018-03-18T16:01:47.637Z,15.27
2018-03-18T16:04:15.651Z,17.33
2018-03-18T16:06:43.721Z,16.33
2018-03-18T16:09:11.589Z,13.40
2018-03-18T16:11:39.763Z,14.77
2018-03-18T16:14:07.675Z,14.93
2018-03-18T16:16:35.596Z,14.18
2018-03-18T16:19:03.464Z,13.45
2018-03-18T16:21:31.333Z,16.40
2018-03-18T16:23:59.504Z,14.57
2018-03-18T16:26:27.368Z,15.10
2018-03-18T16:28:55.549Z,14.45
2018-03-18T16:31:23.512Z,14.35
2018-03-18T16:33:51.378Z,13.60
2018-03-18T16:36:20.478Z,14.48
2018-03-18T16:38:48.353Z,14.25
2018-03-18T16:41:16.212Z,14.90
2018-03-18T16:43:44.178Z,14.50
2018-03-18T16:46:12.144Z,13.52
2018-03-18T16:48:40.484Z,14.60
2018-03-18T16:51:08.344Z,15.55
2018-03-18T16:53:36.736Z,16.17
2018-03-18T16:56:05.042Z,16.00
2018-03-18T16:58:32.937Z,15.18
2018-03-18T17:01:01.186Z,16.27
2018-03-18T17:03:29.691Z,15.93
2018-03-18T17:05:57.840Z,15.45
2018-03-18T17:08:25.812Z,10.88
2018-03-18T17:10:53.675Z,13.15
2018-03-18T17:13:21.645Z,13.10
2018-03-18T17:15:49.512Z,12.27
2018-03-18T17:18:17.552Z,14.65
2018-03-18T17:20:45.551Z,13.80
2018-03-18T17:23:13.484Z,15.00
2018-03-18T17:25:42.410Z,15.65
2018-03-18T17:28:10.241Z,15.05
2018-03-18T17:30:38.932Z,16.27
2018-03-18T17:33:07.543Z,14.75
2018-03-18T17:35:35.466Z,15.90
2018-03-18T17:38:03.486Z,16.05
2018-03-18T17:40:31.560Z,14.30
2018-03-18T17:43:00.840Z,14.82
2018-03-18T17:45:40.702Z,16.25
2018-03-18T17:48:20.347Z,16.60
2018-03-18T17:51:00.023Z,17.15
2018-03-18T17:53:39.804Z,15.20
2018-03-18T17:59:09.666Z,15.25
2018-03-18T18:01:38.249Z,11.57
2018-03-18T18:04:06.510Z,14.10
2018-03-18T18:06:34.392Z,16.05
2018-03-18T18:09:02.873Z,14.73
2018-03-18T18:11:31.470Z,14.57
2018-03-18T18:13:59.732Z,15.45
2018-03-18T18:16:27.925Z,14.73
2018-03-18T18:18:56.899Z,14.43
2018-03-18T18:21:24.826Z,13.55
2018-03-18T18:23:53.158Z,14.48
2018-03-18T18:26:21.009Z,13.98
2018-03-18T18:28:49.491Z,14.02
2018-03-18T18:31:17.972Z,13.70
2018-03-18T18:33:45.809Z,13.88
2018-03-18T18:36:14.175Z,12.60
2018-03-18T18:38:42.084Z,13.77
2018-03-18T18:41:10.872Z,14.40
2018-03-18T18:43:38.841Z,15.10
2018-03-18T18:46:06.707Z,14.90
2018-03-18T18:48:35.495Z,15.05
2018-03-18T18:51:03.771Z,11.70
2018-03-18T18:53:32.013Z,13.88
2018-03-18T18:55:59.914Z,15.40
2018-03-18T18:58:27.746Z,14.98
2018-03-18T19:00:56.568Z,14.15
2018-03-18T19:03:24.434Z,14.93
2018-03-18T19:05:52.510Z,13.48
2018-03-18T19:08:20.542Z,14.40
2018-03-18T19:10:48.563Z,13.62
2018-03-18T19:13:17.336Z,12.68
2018-03-18T19:15:46.223Z,13.85
2018-03-18T19:18:16.038Z,15.55
2018-03-18T19:20:44.649Z,13.62
2018-03-18T19:23:12.589Z,14.77
2018-03-18T19:25:40.967Z,13.62
2018-03-18T19:28:08.918Z,14.50
2018-03-18T19:30:37.615Z,13.65
2018-03-18T19:33:05.489Z,14.18
2018-03-18T19:35:33.354Z,14.07
2018-03-18T19:38:01.238Z,15.35
2018-03-18T19:40:29.292Z,13.32
2018-03-18T19:42:58.184Z,13.13
2018-03-18T19:45:25.975Z,14.63
2018-03-18T19:47:54.204Z,15.73
2018-03-18T19:50:22.606Z,16.20
2018-03-18T19:52:50.983Z,16.42
2018-03-18T19:55:20.224Z,16.25
2018-03-18T19:57:48.429Z,14.75
2018-03-18T20:00:16.321Z,24.20
2018-03-18T20:02:44.855Z,14.57
2018-03-18T20:05:12.692Z,20.50
2018-03-18T20:07:40.743Z,20.92
2018-03-18T20:10:10.039Z,20.98
2018-03-18T20:12:37.909Z,16.92
2018-03-18T20:15:06.556Z,21.98
2018-03-18T20:17:34.422Z,19.58
2018-03-18T20:20:02.631Z,22.20
2018-03-18T20:22:31.168Z,17.20
2018-03-18T20:24:59.913Z,17.37
2018-03-18T20:27:28.266Z,16.83
2018-03-18T20:29:56.230Z,13.23
2018-03-18T20:32:24.629Z,17.30
2018-03-18T20:34:53.453Z,18.90
2018-03-18T20:37:21.386Z,14.10
2018-03-18T20:39:50.069Z,18.25
2018-03-18T20:42:18.243Z,15.20
2018-03-18T20:44:46.416Z,18.17
2018-03-18T20:47:14.712Z,20.08
2018-03-18T20:49:42.863Z,16.87
2018-03-18T20:52:10.803Z,17.48
2018-03-18T20:54:39.916Z,17.58
2018-03-18T20:57:07.805Z,15.13
2018-03-18T20:59:35.979Z,23.98
2018-03-18T21:02:04.352Z,25.33
2018-03-18T21:04:32.308Z,15.57
2018-03-18T21:07:01.077Z,14.95
2018-03-18T21:09:29.076Z,16.73
2018-03-18T21:11:57.050Z,17.58
2018-03-18T21:14:25.526Z,15.73
2018-03-18T21:16:53.494Z,16.05
2018-03-18T21:19:21.360Z,15.18
2018-03-18T21:21:50.149Z,16.33
2018-03-18T21:24:18.019Z,19.00
2018-03-18T21:26:45.789Z,14.63
2018-03-18T21:29:13.668Z,15.85
2018-03-18T21:31:41.618Z,16.87
2018-03-18T21:34:10.526Z,12.27
2018-03-18T21:36:38.424Z,15.75
2018-03-18T21:39:06.364Z,16.55
2018-03-18T21:41:35.231Z,16.30
2018-03-18T21:44:03.897Z,16.00
2018-03-18T21:46:31.886Z,14.63
2018-03-18T21:48:59.832Z,15.65
2018-03-18T21:51:27.727Z,13.62
2018-03-18T21:53:55.664Z,16.23
2018-03-18T21:56:23.631Z,17.15
2018-03-18T21:58:51.699Z,14.87
2018-03-18T22:01:19.810Z,15.25
2018-03-18T22:03:47.917Z,14.05
2018-03-18T22:06:15.945Z,14.85
2018-03-18T22:08:44.189Z,18.25
2018-03-18T22:11:12.863Z,16.23
2018-03-18T22:13:40.774Z,14.07
2018-03-18T22:16:08.788Z,16.67
2018-03-18T22:18:36.814Z,14.48
2018-03-18T22:21:04.671Z,14.18
2018-03-18T22:23:32.888Z,15.25
2018-03-18T22:26:00.720Z,13.62
2018-03-18T22:28:28.587Z,15.20
2018-03-18T22:30:56.452Z,15.20
2018-03-18T22:33:24.320Z,13.70
2018-03-18T22:35:52.618Z,14.65
2018-03-18T22:38:20.565Z,15.43
2018-03-18T22:40:48.327Z,13.68
2018-03-18T22:43:16.081Z,12.90
2018-03-18T22:45:43.959Z,15.82
2018-03-18T22:48:11.928Z,15.85
2018-03-18T22:50:39.594Z,15.48
2018-03-18T22:53:07.245Z,11.75
2018-03-18T22:55:35.117Z,12.40
2018-03-18T22:58:02.991Z,14.48
2018-03-18T23:00:31.671Z,15.13
2018-03-18T23:02:59.639Z,16.33
2018-03-18T23:05:27.363Z,15.43
2018-03-18T23:07:55.136Z,14.00
2018-03-18T23:10:22.784Z,14.93
2018-03-18T23:12:50.687Z,11.57
2018-03-18T23:15:18.221Z,14.87
2018-03-18T23:17:45.859Z,16.45
2018-03-18T23:20:13.497Z,12.65
2018-03-18T23:22:41.105Z,13.98
2018-03-18T23:25:09.301Z,14.90
2018-03-18T23:27:37.177Z,14.13
2018-03-18T23:30:04.839Z,18.00
2018-03-18T23:32:32.606Z,14.60
2018-03-18T23:35:00.368Z,14.38
2018-03-18T23:37:28.543Z,12.07
2018-03-18T23:39:56.093Z,14.35
2018-03-18T23:42:23.649Z,15.77
2018-03-18T23:44:51.322Z,15.23
2018-03-18T23:47:18.906Z,15.77
2018-03-18T23:49:46.627Z,13.75
2018-03-18T23:52:14.306Z,14.80
2018-03-18T23:54:41.850Z,16.05
2018-03-18T23:57:09.440Z,14.68
2018-03-18T23:59:38.008Z,14.80
